Leighton Buzzard, United Kingdom
Current Conditions -  °F | °C
As of 4:50 PM on Monday 22 Dec 2014 (Local Time) from EGTC Reporting Station
Few Clouds Few Clouds  
Wind Chill: 52°   Ceiling: Unl
Heat Index: 52°   Visibility: 5mi
Dew Point: 46°   Wind: 18mph
Humidity: 82%   Direction: 240°WSW
Pressure: 29.97"   Gusts: 31mph
Location:  51.92°N, 0.66°W
Report Text: EGTC 221650Z 24016G27KT 8000 FEW018 11/08 Q1015
Loading
Personal Weather Stations






























Interactive Weather Map New forecast layout! Learn more

10-Day Weather Forecast

Advertisements
Track Severe Weather on mobile